Time;durP1;ratioP1;P1;durP2;ratioP2;P2;SDS_P1;SDS_P2;PMS_P1;PMS_P2;Temp;Humidity;BMP_temperature;BMP_pressure;BME280_temperature;BME280_humidity;BME280_pressure;Samples;Min_cycle;Max_cycle;Signal;HPM_P1;HPM_P2
2022/05/02 00:00:39;;;;;;;9.55;6.72;;;7.70;99.90;;;;;;5030556;28;20041;-45
2022/05/02 00:03:05;;;;;;;9.88;6.75;;;7.70;99.90;;;;;;5028926;28;20564;-45
2022/05/02 00:05:31;;;;;;;10.15;6.78;;;7.60;99.90;;;;;;5029827;28;20138;-45
2022/05/02 00:07:56;;;;;;;11.45;6.25;;;7.60;99.90;;;;;;5029613;28;20033;-49
2022/05/02 00:10:22;;;;;;;10.20;7.35;;;7.60;99.90;;;;;;5027834;28;20079;-48
2022/05/02 00:12:48;;;;;;;10.88;6.25;;;7.60;99.90;;;;;;5031171;28;20048;-48
2022/05/02 00:15:14;;;;;;;9.35;6.13;;;7.60;99.90;;;;;;5033779;28;20036;-47
2022/05/02 00:17:59;;;;;;;12.48;7.30;;;7.50;99.90;;;;;;5031664;28;20554;-49
2022/05/02 00:20:36;;;;;;;9.65;6.85;;;7.50;99.90;;;;;;5029885;28;20396;-47
2022/05/02 00:23:06;;;;;;;9.88;6.15;;;7.60;99.90;;;;;;5030492;28;20120;-46
2022/05/02 00:25:32;;;;;;;8.80;6.35;;;7.60;99.90;;;;;;5032315;28;20033;-48
2022/05/02 00:27:58;;;;;;;9.48;6.80;;;7.70;99.90;;;;;;5028288;28;20033;-47
2022/05/02 00:30:25;;;;;;;11.18;7.30;;;7.60;99.90;;;;;;5032027;28;20037;-47
2022/05/02 00:32:51;;;;;;;8.60;6.47;;;7.60;99.90;;;;;;5029653;28;20037;-45
2022/05/02 00:35:16;;;;;;;10.18;6.43;;;7.70;99.90;;;;;;5031404;28;20130;-47
2022/05/02 00:37:43;;;;;;;9.93;6.32;;;7.70;99.90;;;;;;5033745;28;20127;-48
2022/05/02 00:40:11;;;;;;;11.25;7.10;;;7.60;99.90;;;;;;5028304;28;20065;-48
2022/05/02 00:42:37;;;;;;;9.40;6.57;;;7.60;99.90;;;;;;5029853;28;20492;-48
2022/05/02 00:45:08;;;;;;;10.20;6.43;;;7.60;99.90;;;;;;5031860;28;20037;-45
2022/05/02 00:47:34;;;;;;;10.52;6.50;;;7.70;99.90;;;;;;5026071;28;20478;-46
2022/05/02 00:50:04;;;;;;;10.65;6.53;;;7.70;99.90;;;;;;5028617;28;20806;-47
2022/05/02 00:52:30;;;;;;;13.35;7.38;;;7.60;99.90;;;;;;5030993;28;20041;-46
2022/05/02 00:54:55;;;;;;;10.75;6.63;;;7.70;99.90;;;;;;5033527;28;20435;-46
2022/05/02 00:57:22;;;;;;;10.38;7.38;;;7.60;99.90;;;;;;5028474;28;20037;-46
2022/05/02 00:59:47;;;;;;;10.70;6.35;;;7.60;99.90;;;;;;5030310;28;20041;-46
2022/05/02 01:02:14;;;;;;;13.20;6.65;;;7.50;99.90;;;;;;5032022;28;20071;-46
2022/05/02 01:04:42;;;;;;;10.35;6.82;;;7.60;99.90;;;;;;5029932;28;20033;-47
2022/05/02 01:07:19;;;;;;;10.70;7.07;;;7.60;99.90;;;;;;5028908;28;20022;-47
2022/05/02 01:09:49;;;;;;;11.27;6.55;;;7.50;99.90;;;;;;5030698;28;20033;-48
2022/05/02 01:12:25;;;;;;;11.30;7.13;;;7.50;99.90;;;;;;5033965;28;20032;-47
2022/05/02 01:14:54;;;;;;;10.23;7.13;;;7.50;99.90;;;;;;5031100;28;20033;-46
2022/05/02 01:17:20;;;;;;;11.07;7.40;;;7.40;99.90;;;;;;5031908;28;20523;-48
2022/05/02 01:19:47;;;;;;;11.23;7.40;;;7.30;99.90;;;;;;5031495;28;20028;-49
2022/05/02 01:22:13;;;;;;;11.45;7.25;;;7.30;99.90;;;;;;5027442;28;20069;-47
2022/05/02 01:24:44;;;;;;;13.63;7.70;;;7.20;99.90;;;;;;5029244;28;20029;-45
2022/05/02 01:27:11;;;;;;;10.65;7.20;;;7.10;99.90;;;;;;5030418;28;20041;-47
2022/05/02 01:29:38;;;;;;;11.35;7.82;;;7.10;99.90;;;;;;5031963;28;20041;-47
2022/05/02 01:32:06;;;;;;;9.70;6.97;;;7.10;99.90;;;;;;5033938;28;20037;-48
2022/05/02 01:34:33;;;;;;;11.27;7.50;;;7.10;99.90;;;;;;5028592;28;20104;-47
2022/05/02 01:37:03;;;;;;;13.02;7.78;;;7.00;99.90;;;;;;5028468;28;20112;-47
2022/05/02 01:39:29;;;;;;;11.55;7.90;;;7.00;99.90;;;;;;5027135;28;20090;-47
2022/05/02 01:41:59;;;;;;;12.27;8.20;;;7.00;99.90;;;;;;5029435;28;20042;-48
2022/05/02 01:44:25;;;;;;;12.57;7.47;;;6.90;99.90;;;;;;5026964;28;20054;-48
2022/05/02 01:46:52;;;;;;;13.57;8.40;;;6.90;99.90;;;;;;5029717;28;20053;-48
2022/05/02 01:49:17;;;;;;;12.15;7.53;;;6.80;99.90;;;;;;5036399;28;20554;-46
2022/05/02 01:51:43;;;;;;;9.88;7.72;;;6.70;99.90;;;;;;5034690;28;20042;-46
2022/05/02 01:54:09;;;;;;;13.80;8.05;;;6.80;99.90;;;;;;5033209;28;20670;-45
2022/05/02 01:56:35;;;;;;;11.23;7.70;;;6.70;99.90;;;;;;5037250;28;20392;-46
2022/05/02 01:59:01;;;;;;;11.88;8.15;;;6.70;99.90;;;;;;5032993;28;20048;-45
2022/05/02 02:01:27;;;;;;;12.15;8.05;;;6.70;99.90;;;;;;5032468;28;20037;-45
2022/05/02 02:03:53;;;;;;;12.30;8.18;;;6.60;99.90;;;;;;5035734;28;20091;-46
2022/05/02 02:06:19;;;;;;;13.40;7.95;;;6.60;99.90;;;;;;5032808;28;20035;-48
2022/05/02 02:08:45;;;;;;;11.65;8.32;;;6.60;99.90;;;;;;5033260;28;20326;-45
2022/05/02 02:11:10;;;;;;;13.55;8.05;;;6.50;99.90;;;;;;5032945;28;20025;-51
2022/05/02 02:13:38;;;;;;;13.43;8.73;;;6.50;99.90;;;;;;5034071;28;20038;-47
2022/05/02 02:16:09;;;;;;;14.88;9.07;;;6.50;99.90;;;;;;5038225;28;20037;-45
2022/05/02 02:18:36;;;;;;;12.02;7.78;;;6.50;99.90;;;;;;5032221;28;20041;-47
2022/05/02 02:21:03;;;;;;;14.65;8.32;;;6.40;99.90;;;;;;5035254;28;20036;-50
2022/05/02 02:23:29;;;;;;;12.57;8.85;;;6.40;99.90;;;;;;5034635;28;20048;-48
2022/05/02 02:25:55;;;;;;;13.50;9.13;;;6.40;99.90;;;;;;5030471;28;20034;-46
2022/05/02 02:28:21;;;;;;;15.20;8.52;;;6.40;99.90;;;;;;5034015;28;20501;-48
2022/05/02 02:30:46;;;;;;;13.88;9.35;;;6.30;99.90;;;;;;5033282;28;20044;-47
2022/05/02 02:33:13;;;;;;;14.63;9.77;;;6.30;99.90;;;;;;5034021;28;20037;-46
2022/05/02 02:35:39;;;;;;;12.82;9.35;;;6.20;99.90;;;;;;5030699;28;20037;-47
2022/05/02 02:38:04;;;;;;;14.85;9.57;;;6.30;99.90;;;;;;5032994;28;20045;-47
2022/05/02 02:40:31;;;;;;;14.85;9.07;;;6.20;99.90;;;;;;5032302;28;20356;-45
2022/05/02 02:42:57;;;;;;;13.32;9.00;;;6.20;99.90;;;;;;5036399;28;20052;-45
2022/05/02 02:45:22;;;;;;;14.95;9.50;;;6.20;99.90;;;;;;5032643;28;20037;-46
2022/05/02 02:47:48;;;;;;;12.80;9.07;;;6.10;99.90;;;;;;5028478;28;20124;-46
2022/05/02 02:50:14;;;;;;;14.55;10.18;;;6.10;99.90;;;;;;5034060;28;20026;-45
2022/05/02 02:52:40;;;;;;;14.48;9.57;;;6.10;99.90;;;;;;5035106;28;20037;-45
2022/05/02 02:55:06;;;;;;;12.70;8.73;;;5.90;99.90;;;;;;5035912;28;20033;-45
2022/05/02 02:57:33;;;;;;;14.57;10.05;;;5.80;99.90;;;;;;5035418;28;20037;-45
2022/05/02 02:59:59;;;;;;;13.82;9.55;;;5.80;99.90;;;;;;5027225;28;20075;-48
2022/05/02 03:02:25;;;;;;;15.00;9.88;;;5.80;99.90;;;;;;5031121;28;20424;-47
2022/05/02 03:07:36;;;;;;;14.50;9.75;;;5.70;99.90;;;;;;5032419;28;20091;-46
2022/05/02 03:10:02;;;;;;;13.02;9.20;;;5.80;99.90;;;;;;5030188;28;20029;-47
2022/05/02 03:12:28;;;;;;;14.27;9.70;;;5.70;99.90;;;;;;5034663;28;20092;-47
2022/05/02 03:14:54;;;;;;;14.05;9.50;;;5.60;99.90;;;;;;5031748;28;20037;-48
2022/05/02 03:17:19;;;;;;;13.30;9.50;;;5.60;99.90;;;;;;5031432;28;20030;-46
2022/05/02 03:19:45;;;;;;;13.65;10.35;;;5.50;99.90;;;;;;5033549;28;20120;-45
2022/05/02 03:22:11;;;;;;;14.70;10.23;;;5.50;99.90;;;;;;5035453;28;20044;-45
2022/05/02 03:24:36;;;;;;;16.35;10.75;;;5.60;99.90;;;;;;5031856;28;20473;-47
2022/05/02 03:27:02;;;;;;;12.93;9.63;;;5.70;99.90;;;;;;5032939;28;20039;-49
2022/05/02 03:29:28;;;;;;;14.20;10.35;;;5.50;99.90;;;;;;5037459;28;20448;-47
2022/05/02 03:31:53;;;;;;;16.30;10.38;;;5.50;99.90;;;;;;5032167;28;20061;-47
2022/05/02 03:34:19;;;;;;;14.60;10.60;;;5.50;99.90;;;;;;5030254;28;20041;-45
2022/05/02 03:36:45;;;;;;;16.17;10.63;;;5.40;99.90;;;;;;5032341;28;20087;-46
2022/05/02 03:39:10;;;;;;;16.25;11.00;;;5.40;99.90;;;;;;5035485;28;20547;-46
2022/05/02 03:41:36;;;;;;;16.60;11.48;;;5.50;99.90;;;;;;5027975;28;20049;-49
2022/05/02 03:44:01;;;;;;;15.57;10.70;;;5.50;99.90;;;;;;5033542;28;20045;-46
2022/05/02 03:46:27;;;;;;;15.55;10.65;;;5.50;99.90;;;;;;5032616;28;20057;-49
2022/05/02 03:48:54;;;;;;;16.08;10.93;;;5.40;99.90;;;;;;5031578;28;20033;-46
2022/05/02 03:51:20;;;;;;;14.43;10.77;;;5.30;99.90;;;;;;5029424;28;20068;-47
2022/05/02 03:53:45;;;;;;;16.25;11.38;;;5.30;99.90;;;;;;5029334;28;20041;-46
2022/05/02 03:56:12;;;;;;;15.55;10.88;;;5.40;99.90;;;;;;5033135;28;20025;-47
2022/05/02 03:58:38;;;;;;;17.20;11.43;;;5.30;99.90;;;;;;5032335;28;20042;-47
2022/05/02 04:01:04;;;;;;;17.55;11.77;;;5.40;99.90;;;;;;5032378;28;20034;-48
2022/05/02 04:03:29;;;;;;;17.38;11.52;;;5.40;99.90;;;;;;5032183;28;20151;-47
2022/05/02 04:05:55;;;;;;;14.98;11.27;;;5.40;99.90;;;;;;5030983;28;20030;-45
2022/05/02 04:08:21;;;;;;;15.00;11.13;;;5.30;99.90;;;;;;5031706;28;20029;-49
2022/05/02 04:10:46;;;;;;;17.48;12.25;;;5.40;99.90;;;;;;5033264;28;20519;-49
2022/05/02 04:13:12;;;;;;;17.77;11.80;;;5.30;99.90;;;;;;5031112;28;20103;-47
2022/05/02 04:15:38;;;;;;;17.40;11.60;;;5.30;99.90;;;;;;5028903;28;20068;-48
2022/05/02 04:18:04;;;;;;;16.73;12.25;;;5.30;99.90;;;;;;5047730;28;20289;-47
2022/05/02 04:20:30;;;;;;;18.75;12.57;;;5.30;99.90;;;;;;5030770;28;20481;-45
2022/05/02 04:22:55;;;;;;;17.75;12.02;;;5.30;99.90;;;;;;5029458;28;20076;-45
2022/05/02 04:25:21;;;;;;;16.85;12.10;;;5.30;99.90;;;;;;5029168;28;20044;-46
2022/05/02 04:27:47;;;;;;;18.45;12.38;;;5.20;99.90;;;;;;5032050;28;20473;-47
2022/05/02 04:30:13;;;;;;;18.10;12.02;;;5.10;99.90;;;;;;5031909;28;20132;-46
2022/05/02 04:32:38;;;;;;;17.77;11.70;;;5.10;99.90;;;;;;5031847;28;20077;-49
2022/05/02 04:35:05;;;;;;;17.83;12.15;;;5.10;99.90;;;;;;5036599;28;20044;-46
2022/05/02 04:37:31;;;;;;;17.42;12.93;;;5.10;99.90;;;;;;5032533;28;20037;-50
2022/05/02 04:39:57;;;;;;;18.55;13.05;;;5.20;99.90;;;;;;5031044;28;20040;-48
2022/05/02 04:42:23;;;;;;;21.17;13.13;;;5.10;99.90;;;;;;5029361;28;20053;-46
2022/05/02 04:44:48;;;;;;;17.95;13.52;;;5.20;99.90;;;;;;5035642;28;20116;-46
2022/05/02 04:47:14;;;;;;;20.15;13.65;;;5.20;99.90;;;;;;5031469;28;20049;-47
2022/05/02 04:49:40;;;;;;;19.42;13.30;;;5.30;99.90;;;;;;5030351;28;20530;-47
2022/05/02 04:52:06;;;;;;;19.17;13.50;;;5.30;99.90;;;;;;5031238;28;20049;-47
2022/05/02 04:54:32;;;;;;;22.10;12.93;;;5.30;99.90;;;;;;5029371;28;20033;-48
2022/05/02 04:56:57;;;;;;;20.08;13.50;;;5.20;99.90;;;;;;5032273;28;20033;-46
2022/05/02 04:59:23;;;;;;;17.67;12.70;;;5.30;99.90;;;;;;5029457;28;20507;-47
2022/05/02 05:01:49;;;;;;;18.65;13.18;;;5.30;99.90;;;;;;5029294;28;20091;-46
2022/05/02 05:04:15;;;;;;;17.95;13.05;;;5.40;99.90;;;;;;5028459;28;20036;-45
2022/05/02 05:06:40;;;;;;;19.92;14.43;;;5.50;99.90;;;;;;5030139;28;20030;-45
2022/05/02 05:09:06;;;;;;;19.95;14.23;;;5.50;99.90;;;;;;5029422;28;20039;-47
2022/05/02 05:11:47;;;;;;;19.90;13.60;;;5.50;99.90;;;;;;5033915;28;20037;-46
2022/05/02 05:17:42;;;;;;;21.35;14.32;;;5.60;99.90;;;;;;5030506;28;20037;-48
2022/05/02 05:20:35;;;;;;;21.30;14.45;;;5.60;99.90;;;;;;5029328;28;20425;-50
2022/05/02 05:23:03;;;;;;;21.58;15.57;;;5.70;99.90;;;;;;5031394;28;20056;-46
2022/05/02 05:25:41;;;;;;;19.65;13.98;;;5.70;99.90;;;;;;5035850;28;20037;-47
2022/05/02 05:28:21;;;;;;;21.30;14.40;;;5.80;99.90;;;;;;5034272;28;20435;-48
2022/05/02 05:30:51;;;;;;;22.42;15.13;;;5.80;99.90;;;;;;5037384;28;20037;-50
2022/05/02 05:33:26;;;;;;;21.15;15.18;;;6.00;99.90;;;;;;5033709;28;20033;-48
2022/05/02 05:36:24;;;;;;;21.58;15.05;;;6.10;99.90;;;;;;5033190;28;20049;-47
2022/05/02 05:38:53;;;;;;;20.92;14.70;;;6.30;99.90;;;;;;5035883;28;20033;-48
2022/05/02 05:41:43;;;;;;;20.67;13.95;;;6.40;99.90;;;;;;5030817;28;20049;-46
2022/05/02 05:44:44;;;;;;;20.25;14.10;;;6.50;99.90;;;;;;5037645;28;20076;-46
2022/05/02 05:47:25;;;;;;;22.23;14.88;;;6.40;99.90;;;;;;5033844;28;20128;-46
2022/05/02 05:50:22;;;;;;;22.40;14.48;;;6.50;99.90;;;;;;5035715;28;20087;-46
2022/05/02 05:53:12;;;;;;;21.08;15.02;;;6.50;99.90;;;;;;5033038;28;20042;-47
2022/05/02 05:55:56;;;;;;;20.55;15.73;;;6.50;99.90;;;;;;5034751;28;20041;-46
2022/05/02 05:58:46;;;;;;;22.67;15.13;;;6.60;99.90;;;;;;5036000;28;20033;-46
2022/05/02 06:01:15;;;;;;;22.35;15.32;;;6.70;99.90;;;;;;5035370;28;20588;-46
2022/05/02 06:04:03;;;;;;;19.90;14.85;;;6.70;99.90;;;;;;5035180;28;20056;-49
2022/05/02 06:06:29;;;;;;;21.38;14.73;;;6.70;99.90;;;;;;5036020;28;20044;-47
2022/05/02 06:08:58;;;;;;;25.30;14.57;;;6.70;99.90;;;;;;5038743;28;20088;-47
2022/05/02 06:11:26;;;;;;;20.63;14.43;;;6.80;99.90;;;;;;5030074;28;20803;-49
2022/05/02 06:13:55;;;;;;;20.88;15.20;;;6.80;99.90;;;;;;5031426;28;20392;-46
2022/05/02 06:19:15;;;;;;;22.50;15.25;;;7.00;99.90;;;;;;5034335;28;20480;-45
2022/05/02 06:21:43;;;;;;;23.52;15.25;;;7.00;99.90;;;;;;5033756;28;20040;-46
2022/05/02 06:24:14;;;;;;;20.52;14.55;;;7.00;99.90;;;;;;5035211;28;20033;-46
2022/05/02 06:26:42;;;;;;;20.88;14.45;;;7.10;99.90;;;;;;5030103;28;20037;-47
2022/05/02 06:29:09;;;;;;;19.48;14.13;;;7.10;99.90;;;;;;5035189;28;20033;-47
2022/05/02 06:31:36;;;;;;;23.00;14.55;;;7.10;99.90;;;;;;5035372;28;20055;-45
2022/05/02 06:34:04;;;;;;;18.00;13.55;;;7.20;99.90;;;;;;5032682;28;20674;-46
2022/05/02 06:36:59;;;;;;;22.02;14.55;;;7.40;99.90;;;;;;5034940;28;20072;-46
2022/05/02 06:39:45;;;;;;;20.00;14.25;;;7.50;99.90;;;;;;5033053;28;20033;-45
2022/05/02 06:42:28;;;;;;;20.08;14.40;;;7.50;99.90;;;;;;5032086;28;20720;-48
2022/05/02 06:45:22;;;;;;;20.77;14.30;;;7.60;99.90;;;;;;5032839;28;20052;-48
2022/05/02 06:48:09;;;;;;;23.15;14.40;;;7.60;99.90;;;;;;5033292;28;20083;-49
2022/05/02 06:50:38;;;;;;;17.38;14.05;;;7.80;99.90;;;;;;5030715;28;20064;-47
2022/05/02 06:53:09;;;;;;;19.85;13.82;;;7.80;99.90;;;;;;5032635;28;20042;-49
2022/05/02 06:55:53;;;;;;;18.35;13.55;;;7.90;99.90;;;;;;5033127;28;20076;-47
2022/05/02 06:58:30;;;;;;;21.27;12.98;;;7.90;99.90;;;;;;5032365;28;20155;-49
2022/05/02 07:01:39;;;;;;;19.33;13.77;;;8.00;99.90;;;;;;5034719;28;20037;-45
2022/05/02 07:04:24;;;;;;;20.83;14.50;;;8.10;99.90;;;;;;5023041;28;20061;-46
2022/05/02 07:07:10;;;;;;;;;;;8.30;99.90;;;;;;5032845;28;20072;-47
2022/05/02 07:09:41;;;;;;;19.17;13.73;;;8.30;99.90;;;;;;5032217;28;20137;-50
2022/05/02 07:12:11;;;;;;;19.52;14.18;;;8.50;99.90;;;;;;5034455;28;20385;-46
2022/05/02 07:15:01;;;;;;;19.85;13.30;;;8.60;99.90;;;;;;5034191;28;20492;-46
2022/05/02 07:17:50;;;;;;;18.63;13.73;;;8.60;99.90;;;;;;5033569;28;20579;-49
2022/05/02 07:20:24;;;;;;;18.80;13.43;;;8.70;99.90;;;;;;5034213;28;20034;-46
2022/05/02 07:23:36;;;;;;;19.42;14.30;;;8.80;99.90;;;;;;5034462;28;20047;-48
2022/05/02 07:26:21;;;;;;;19.42;14.13;;;9.00;99.90;;;;;;5012487;28;20063;-50
2022/05/02 07:28:49;;;;;;;18.48;12.55;;;9.10;99.90;;;;;;5031196;28;20041;-48
2022/05/02 07:31:24;;;;;;;17.50;12.85;;;9.10;99.90;;;;;;5033840;28;20044;-47
2022/05/02 07:33:52;;;;;;;18.80;13.25;;;9.10;99.90;;;;;;5032382;28;20493;-47
2022/05/02 07:36:20;;;;;;;16.73;12.10;;;9.10;99.90;;;;;;5034462;28;20477;-50
2022/05/02 07:39:00;;;;;;;15.10;11.63;;;9.40;99.90;;;;;;5033859;28;20575;-46
2022/05/02 07:41:27;;;;;;;17.65;12.80;;;9.50;99.90;;;;;;5032504;28;20393;-47
2022/05/02 07:43:58;;;;;;;18.17;12.68;;;9.60;99.90;;;;;;5034276;28;20030;-48
2022/05/02 07:46:31;;;;;;;18.20;12.65;;;9.60;99.90;;;;;;5031636;28;20033;-49
2022/05/02 07:48:58;;;;;;;17.45;12.23;;;9.80;99.90;;;;;;5030575;28;20061;-50
2022/05/02 07:51:25;;;;;;;17.00;12.05;;;9.90;99.90;;;;;;5035597;28;20045;-49
2022/05/02 07:53:52;;;;;;;19.55;12.75;;;10.00;99.90;;;;;;5027194;28;20040;-49
2022/05/02 07:56:22;;;;;;;17.73;12.23;;;10.20;99.90;;;;;;5031133;28;20067;-46
2022/05/02 07:58:52;;;;;;;16.73;11.55;;;10.40;99.90;;;;;;5030856;28;20073;-45
2022/05/02 08:01:19;;;;;;;16.25;10.93;;;10.40;99.90;;;;;;5032192;28;20033;-46
2022/05/02 08:03:44;;;;;;;15.60;11.32;;;10.50;99.90;;;;;;5033767;28;20045;-45
2022/05/02 08:06:28;;;;;;;16.55;11.40;;;10.50;99.90;;;;;;5030692;28;20048;-48
2022/05/02 08:09:06;;;;;;;20.25;12.05;;;10.70;99.90;;;;;;5029943;28;20033;-47
2022/05/02 08:11:59;;;;;;;21.55;12.45;;;10.80;99.90;;;;;;5029844;28;20037;-48
2022/05/02 08:14:42;;;;;;;18.50;11.77;;;10.90;99.90;;;;;;5031655;28;20037;-45
2022/05/02 08:17:48;;;;;;;14.23;9.55;;;11.00;99.90;;;;;;5030078;28;20044;-49
2022/05/02 08:20:46;;;;;;;14.60;9.77;;;11.10;99.90;;;;;;5031561;28;20396;-48
2022/05/02 08:27:17;;;;;;;15.90;11.07;;;11.30;99.90;;;;;;5044738;28;20083;-49
2022/05/02 08:30:04;;;;;;;17.45;9.88;;;11.30;99.90;;;;;;5029903;28;20433;-47
2022/05/02 08:32:39;;;;;;;18.33;10.18;;;11.50;99.90;;;;;;5048278;28;20087;-48
2022/05/02 08:35:22;;;;;;;14.30;9.57;;;11.50;99.90;;;;;;5042194;28;20049;-48
2022/05/02 08:38:29;;;;;;;14.18;10.52;;;11.60;99.90;;;;;;5031221;28;20073;-48
2022/05/02 08:41:19;;;;;;;16.65;9.23;;;11.60;99.90;;;;;;5022836;28;20048;-49
2022/05/02 08:44:02;;;;;;;16.17;9.18;;;11.70;99.90;;;;;;5034541;28;20048;-48
2022/05/02 08:46:53;;;;;;;13.43;9.48;;;11.90;99.90;;;;;;5030355;28;20083;-47
2022/05/02 08:49:48;;;;;;;13.45;8.77;;;12.10;99.90;;;;;;5030710;28;20049;-48
2022/05/02 08:53:10;;;;;;;13.20;8.20;;;12.20;99.90;;;;;;5031314;28;20041;-47
2022/05/02 08:55:54;;;;;;;12.45;7.45;;;12.30;99.90;;;;;;5007651;28;20048;-47
2022/05/02 08:58:40;;;;;;;;;;;12.60;99.90;;;;;;5009367;28;20065;-47
2022/05/02 09:01:26;;;;;;;13.30;7.85;;;12.60;99.90;;;;;;5027423;28;19921;-49
2022/05/02 09:03:58;;;;;;;13.35;8.32;;;12.80;99.90;;;;;;5031490;28;20085;-48
2022/05/02 09:06:43;;;;;;;12.02;7.28;;;13.00;99.90;;;;;;5030906;28;20041;-47
2022/05/02 09:09:30;;;;;;;10.68;7.30;;;13.20;99.90;;;;;;5031169;28;20037;-48
2022/05/02 09:12:05;;;;;;;11.77;7.00;;;13.40;99.90;;;;;;5031161;28;20045;-49
2022/05/02 09:14:49;;;;;;;11.00;7.70;;;13.60;99.90;;;;;;5030737;28;20089;-49
2022/05/02 09:17:21;;;;;;;;;;;13.80;99.90;;;;;;5031474;28;20052;-50
2022/05/02 09:20:06;;;;;;;10.10;7.18;;;14.00;99.90;;;;;;5030902;28;19996;-48
2022/05/02 09:22:53;;;;;;;11.07;7.13;;;14.10;99.90;;;;;;5030916;28;20041;-49
2022/05/02 09:25:36;;;;;;;12.65;7.13;;;14.10;99.90;;;;;;5030576;28;20492;-46
2022/05/02 09:28:13;;;;;;;14.38;7.10;;;14.30;99.90;;;;;;5030892;28;20084;-48
2022/05/02 09:31:17;;;;;;;10.93;6.38;;;14.50;99.90;;;;;;5030982;28;20065;-49
2022/05/02 09:34:21;;;;;;;10.65;6.25;;;14.50;99.70;;;;;;5030697;28;20520;-46
2022/05/02 09:37:12;;;;;;;9.77;5.28;;;14.50;98.80;;;;;;5030552;28;20155;-49
2022/05/02 09:39:59;;;;;;;9.40;5.32;;;14.50;99.40;;;;;;5030518;28;20095;-47
2022/05/02 09:42:46;;;;;;;9.60;5.97;;;14.70;98.50;;;;;;5030831;28;20144;-47
2022/05/02 09:51:46;;;;;;;11.48;5.32;;;14.80;97.80;;;;;;5050843;28;20465;-46
2022/05/02 09:56:37;;;;;;;;;;;15.00;98.60;;;;;;5050989;28;20384;-49
2022/05/02 09:57:17;;;;;;;11.60;6.00;;;15.20;98.10;;;;;;5050186;28;19917;-46
2022/05/02 09:59:48;;;;;;;9.50;5.53;;;15.40;98.40;;;;;;5050231;28;20037;-46
2022/05/02 10:02:21;;;;;;;8.35;5.63;;;15.50;97.60;;;;;;5050126;28;20108;-46
2022/05/02 10:05:03;;;;;;;8.23;5.82;;;15.60;99.10;;;;;;5050546;28;20041;-47
2022/05/02 10:07:29;;;;;;;9.27;5.80;;;15.60;97.80;;;;;;5050466;28;20505;-47
2022/05/02 10:10:09;;;;;;;10.23;5.85;;;15.70;96.70;;;;;;5052176;28;20072;-50
2022/05/02 10:13:07;;;;;;;9.60;5.30;;;15.60;96.50;;;;;;5054186;28;20037;-47
2022/05/02 10:15:56;;;;;;;9.45;5.22;;;15.60;96.60;;;;;;5049425;28;20099;-49
2022/05/02 10:18:25;;;;;;;7.82;5.35;;;15.80;95.90;;;;;;5034891;28;20033;-47
2022/05/02 10:21:32;;;;;;;7.43;5.30;;;15.60;95.60;;;;;;5033126;28;20037;-50
2022/05/02 10:24:23;;;;;;;8.27;5.13;;;15.70;94.60;;;;;;5034871;28;20052;-48
2022/05/02 10:27:04;;;;;;;10.68;4.80;;;15.90;93.80;;;;;;5033406;28;20481;-49
2022/05/02 10:29:59;;;;;;;7.38;4.68;;;15.70;93.10;;;;;;5033944;28;20029;-50
2022/05/02 10:32:32;;;;;;;;;;;15.60;94.10;;;;;;5028624;28;20055;-49
2022/05/02 10:35:00;;;;;;;10.05;5.10;;;15.90;92.80;;;;;;5033540;28;20058;-48
2022/05/02 10:37:35;;;;;;;9.32;5.25;;;15.80;94.60;;;;;;5033805;28;20092;-50
2022/05/02 10:40:10;;;;;;;8.95;4.95;;;15.90;93.50;;;;;;5033488;28;20114;-51
2022/05/02 10:42:42;;;;;;;8.65;4.60;;;16.10;94.00;;;;;;5033605;28;20432;-48
2022/05/02 10:45:09;;;;;;;9.57;4.60;;;16.10;91.70;;;;;;5032257;28;20045;-49
2022/05/02 10:47:45;;;;;;;9.15;4.95;;;16.10;91.50;;;;;;5033287;28;20397;-47
2022/05/02 10:50:19;;;;;;;9.45;6.43;;;16.10;91.00;;;;;;5033269;28;20041;-46
2022/05/02 10:53:00;;;;;;;9.75;6.28;;;16.00;92.50;;;;;;5033561;28;20073;-47
2022/05/02 10:55:31;;;;;;;8.48;5.82;;;16.10;92.10;;;;;;5032926;28;20041;-49
2022/05/02 10:58:12;;;;;;;9.73;5.28;;;16.30;92.60;;;;;;5031901;28;20048;-49
2022/05/02 11:01:07;;;;;;;7.97;5.32;;;16.30;92.80;;;;;;5033405;28;20049;-48
2022/05/02 11:04:05;;;;;;;9.05;5.50;;;16.50;92.80;;;;;;5033223;28;20477;-49
2022/05/02 11:06:37;;;;;;;6.57;4.72;;;16.60;92.50;;;;;;5033147;28;20037;-48
2022/05/02 11:09:06;;;;;;;7.75;4.50;;;16.70;92.00;;;;;;5032942;28;20473;-47
2022/05/02 11:11:50;;;;;;;8.32;4.50;;;17.00;90.90;;;;;;5051736;28;20558;-47
2022/05/02 11:14:45;;;;;;;6.93;3.88;;;17.10;89.30;;;;;;5052702;28;20219;-50
2022/05/02 11:17:24;;;;;;;7.07;4.35;;;17.10;89.70;;;;;;5052618;28;20047;-48
2022/05/02 11:23:19;;;;;;;7.78;4.32;;;17.10;81.20;;;;;;5052034;28;20109;-50
2022/05/02 11:26:03;;;;;;;6.53;3.97;;;17.20;81.50;;;;;;5052306;28;20499;-50
2022/05/02 11:29:05;;;;;;;7.23;3.80;;;17.30;83.70;;;;;;5052346;28;20041;-48
2022/05/02 11:31:45;;;;;;;7.13;3.72;;;17.80;85.90;;;;;;5052601;28;20072;-49
2022/05/02 11:34:49;;;;;;;6.63;4.00;;;17.50;78.90;;;;;;5052514;28;20451;-48
2022/05/02 11:37:37;;;;;;;9.77;4.80;;;17.80;80.30;;;;;;5051962;28;20049;-50
2022/05/02 11:40:12;;;;;;;8.00;4.80;;;17.90;81.40;;;;;;5052369;28;20037;-48
2022/05/02 11:42:45;;;;;;;7.40;4.45;;;17.80;82.80;;;;;;5052001;28;20043;-50
2022/05/02 11:45:28;;;;;;;9.27;5.00;;;17.90;82.10;;;;;;5052012;28;20033;-50
2022/05/02 11:48:20;;;;;;;9.77;5.18;;;17.70;79.90;;;;;;5052095;28;20500;-47
2022/05/02 11:50:48;;;;;;;6.90;4.45;;;18.30;82.50;;;;;;5052425;28;20112;-51
2022/05/02 11:53:16;;;;;;;7.18;4.80;;;18.30;83.90;;;;;;5051699;28;20125;-48
2022/05/02 11:55:45;;;;;;;6.82;4.70;;;18.50;82.50;;;;;;5051724;28;20068;-50
2022/05/02 11:58:34;;;;;;;8.13;4.65;;;18.40;81.10;;;;;;5052118;28;20071;-50
2022/05/02 12:01:06;;;;;;;9.15;4.45;;;18.20;79.40;;;;;;5052116;28;20476;-52
2022/05/02 12:03:53;;;;;;;7.30;5.15;;;18.50;82.50;;;;;;5051557;28;20048;-49
2022/05/02 12:06:31;;;;;;;8.27;5.25;;;18.80;82.70;;;;;;5051695;28;20051;-46
2022/05/02 12:09:03;;;;;;;10.02;6.03;;;18.90;84.30;;;;;;5051726;28;20492;-51
2022/05/02 12:11:29;;;;;;;10.48;4.90;;;18.80;84.40;;;;;;5051715;28;20067;-48
2022/05/02 12:13:55;;;;;;;7.32;5.30;;;18.70;80.90;;;;;;5051554;28;20135;-47
2022/05/02 12:16:21;;;;;;;8.05;5.38;;;18.30;80.70;;;;;;5051433;28;20094;-50
2022/05/02 12:18:55;;;;;;;8.23;5.35;;;18.60;82.00;;;;;;5050380;28;20057;-48
2022/05/02 12:21:21;;;;;;;;;;;18.10;79.00;;;;;;5051666;28;20047;-47
2022/05/02 12:23:48;;;;;;;7.47;5.05;;;17.70;80.30;;;;;;5051357;28;19921;-47
2022/05/02 12:26:20;;;;;;;9.55;5.28;;;17.90;82.40;;;;;;5050435;28;20091;-46
2022/05/02 12:28:48;;;;;;;8.95;5.35;;;18.40;83.10;;;;;;5051271;28;20119;-51
2022/05/02 12:31:19;;;;;;;9.10;5.75;;;18.50;82.10;;;;;;5051600;28;20036;-50
2022/05/02 12:33:52;;;;;;;9.95;5.50;;;18.50;81.40;;;;;;5051209;28;20076;-47
2022/05/02 12:36:20;;;;;;;10.20;5.90;;;18.50;80.40;;;;;;5050825;28;20504;-47
2022/05/02 12:38:54;;;;;;;9.63;5.30;;;18.90;81.50;;;;;;5051084;28;20112;-48
2022/05/02 12:41:27;;;;;;;10.82;5.28;;;19.00;83.20;;;;;;5050989;28;20159;-45
2022/05/02 12:43:59;;;;;;;8.75;5.25;;;19.10;81.40;;;;;;5051168;28;20044;-44
2022/05/02 12:46:33;;;;;;;9.38;5.00;;;19.40;80.90;;;;;;5051217;28;20067;-47
2022/05/02 12:49:03;;;;;;;;;;;19.30;80.00;;;;;;5051280;28;20049;-45
2022/05/02 12:51:31;;;;;;;7.97;5.30;;;19.30;79.50;;;;;;5051163;28;20280;-46
2022/05/02 12:54:15;;;;;;;7.72;5.13;;;19.40;80.70;;;;;;5050889;28;20052;-48
2022/05/02 13:02:45;;;;;;;8.95;4.55;;;19.50;78.50;;;;;;5051075;28;21249;-50
2022/05/02 13:05:15;;;;;;;6.90;4.55;;;19.50;78.70;;;;;;5050496;28;20033;-47
2022/05/02 13:07:47;;;;;;;6.80;4.63;;;19.70;78.20;;;;;;5050496;28;20037;-45
2022/05/02 13:10:27;;;;;;;7.32;5.00;;;19.70;76.40;;;;;;5050527;28;20463;-49
2022/05/02 13:13:13;;;;;;;7.68;4.80;;;19.70;76.00;;;;;;5048790;28;20510;-49
2022/05/02 13:15:49;;;;;;;7.65;4.40;;;20.20;74.70;;;;;;5029959;28;20079;-47
2022/05/02 13:18:20;;;;;;;6.88;4.78;;;20.50;75.10;;;;;;5027771;28;20068;-47
2022/05/02 13:21:10;;;;;;;8.60;4.85;;;20.50;75.50;;;;;;5027332;28;20045;-49
2022/05/02 13:23:43;;;;;;;10.07;5.13;;;20.60;72.70;;;;;;5033462;28;20040;-48
2022/05/02 13:26:26;;;;;;;7.88;4.63;;;20.90;74.70;;;;;;5028582;28;20513;-47
2022/05/02 13:29:17;;;;;;;10.05;4.78;;;20.40;74.10;;;;;;5028950;28;20057;-50
2022/05/02 13:32:03;;;;;;;10.18;4.93;;;20.60;72.90;;;;;;5028042;28;20033;-49
2022/05/02 13:34:50;;;;;;;10.73;5.00;;;19.70;71.90;;;;;;5029544;28;20582;-47
2022/05/02 13:37:31;;;;;;;7.85;4.53;;;19.50;75.40;;;;;;5031293;28;20033;-46
2022/05/02 13:40:04;;;;;;;9.57;5.00;;;19.80;77.00;;;;;;5031206;28;20608;-47
2022/05/02 13:42:34;;;;;;;6.97;4.40;;;20.00;76.80;;;;;;5031451;28;20167;-49
2022/05/02 13:45:04;;;;;;;6.57;4.75;;;19.40;75.60;;;;;;5033936;28;20123;-48
2022/05/02 13:47:46;;;;;;;7.45;4.35;;;19.20;75.00;;;;;;5032251;28;20053;-48